Terminal Aerodrome Forecast
Issued by NWS Shreveport, LA

Home | Current Version | Previous Version | Text Only | Print | Product List | Glossary On
Versions: 1 2 3 4 5 6 7 8 9 10 11 12 13 14 15 16 17 18 19
258
FTUS44 KSHV 261739
TAFMLU
TAF
KMLU 261739Z 2618/2718 07006KT P6SM FEW040 FEW120 SCT250
     FM270100 00000KT P6SM SCT120 BKN250
     FM270800 00000KT P6SM FEW040 SCT100 BKN250
     FM271200 05005KT P6SM SCT050 SCT100 BKN250=

USA.gov is the U.S. government's official web portal to all federal, state and local government web resources and services.